Shoyo Maru — JD2209 — position and weather

sailwx.info

Track history (hours):
 
Tides and Currents Weather Stations Pressure Air Temp Water Temp Dewpoint Dewpoint Depression Visibility Wind Speed Wind Dir Waves Ship Positions

Shoyo Maru

Last reported at 2018-Jun-21 18:20 UTC. Time now 2018-Jul-19 09:50 UTC.
Position N 33°48' E 135°04'.
Warning: this ship's position is 27 days out of date.

Length 33 m; draft 4.3 m.

Type: Tug. MMSI: 432543000.

Date/timePositionNaut miles runAvg speedWind from/ knotsBaromVisibWave heightAir tempDewpointWater temp
2018-Jun-21 18:20N 33°48' E 135°04'2 6.1
2018-Jun-21 18:00N 33°49' E 135°02'3 6.2
2018-Jun-21 17:30N 33°52' E 134°60'3 6.1
2018-Jun-21 17:00N 33°55' E 134°59'3 6.3
2018-Jun-21 16:30N 33°58' E 134°59'3 6.2
2018-Jun-21 16:01N 34°01' E 134°59'3 6.0
2018-Jun-21 15:30N 34°04' E 134°59'3 5.9
2018-Jun-21 15:01N 34°07' E 134°59'3 5.8
2018-Jun-21 14:30N 34°10' E 134°60'2 4.4
2018-Jun-21 14:01N 34°12' E 134°59'3 6.4
2018-Jun-21 13:31N 34°15' E 134°58'3 6.7
2018-Jun-21 13:01N 34°18' E 134°59'3 6.0
2018-Jun-21 12:31N 34°21' E 134°60'3 5.9
2018-Jun-21 12:00N 34°23' E 135°02'3 6.4
2018-Jun-21 11:31N 34°26' E 135°05'3 6.5
2018-Jun-21 11:01N 34°28' E 135°08'3 6.7
2018-Jun-21 10:30N 34°30' E 135°11'3 6.4
2018-Jun-21 10:00N 34°32' E 135°14'3 6.0
2018-Jun-21 09:31N 34°34' E 135°16'3 6.1
2018-Jun-21 09:00N 34°37' E 135°19'2 3.9
2018-Jun-21 08:30N 34°38' E 135°20'0 0.3
2018-Jun-21 08:00N 34°38' E 135°20'0 0.0
2018-Jun-21 07:31N 34°38' E 135°20'0 0.0
2018-Jun-21 07:00N 34°38' E 135°20'0 0.0
2018-Jun-21 06:30N 34°38' E 135°20'0 0.1
2018-Jun-21 05:58N 34°38' E 135°20'0 0.1
2018-Jun-21 05:31N 34°38' E 135°20'0 0.0
2018-Jun-21 05:00N 34°38' E 135°20'0 0.0
2018-Jun-21 04:30N 34°38' E 135°20'0 0.0
2018-Jun-21 04:00N 34°38' E 135°20'0 0.0
2018-Jun-21 03:29N 34°38' E 135°20'0 0.0
2018-Jun-21 03:00N 34°38' E 135°20'0 0.0
2018-Jun-21 02:30N 34°38' E 135°20'0 0.1
2018-Jun-21 02:00N 34°38' E 135°20'0 0.0
2018-Jun-21 01:30N 34°38' E 135°20'1 1.9
2018-Jun-21 01:00N 34°39' E 135°21'4 8.7
2018-Jun-21 00:30N 34°39' E 135°26'0 0.0
2018-Jun-21 00:00N 34°39' E 135°26'0 0.0
2018-Jun-20 23:29N 34°39' E 135°26'0 0.0
2018-Jun-20 22:47N 34°39' E 135°26'0 0.0
2018-Jun-20 22:20N 34°39' E 135°26'0 0.0
2018-Jun-20 22:00N 34°39' E 135°26'0 0.0
2018-Jun-20 21:30N 34°39' E 135°26'0 0.0
2018-Jun-20 21:00N 34°39' E 135°26'0 0.0
2018-Jun-20 20:30N 34°39' E 135°26'0 0.0
2018-Jun-20 20:00N 34°39' E 135°26'0 0.0
2018-Jun-20 19:30N 34°39' E 135°26'0 0.0
2018-Jun-20 19:00N 34°39' E 135°26'0 0.0
2018-Jun-20 18:30N 34°39' E 135°26'0 0.0
2018-Jun-20 18:00N 34°39' E 135°26'0 0.0
2018-Jun-20 17:30N 34°39' E 135°26'0 0.0
2018-Jun-20 17:00N 34°39' E 135°26'0 0.0
2018-Jun-20 16:30N 34°39' E 135°26'0 0.0
2018-Jun-20 16:00N 34°39' E 135°26'0 0.0
2018-Jun-20 15:30N 34°39' E 135°26'0 0.0
2018-Jun-20 15:00N 34°39' E 135°26'0 0.0
2018-Jun-20 14:30N 34°39' E 135°26'0 0.0
2018-Jun-20 13:59N 34°39' E 135°26'0 0.0
2018-Jun-20 13:23N 34°39' E 135°26'0 0.0
2018-Jun-20 12:59N 34°39' E 135°26'0 0.0
2018-Jun-20 12:30N 34°39' E 135°26'0 0.0
2018-Jun-20 11:55N 34°39' E 135°26'0 0.0
2018-Jun-20 11:17N 34°39' E 135°26'0 0.0
2018-Jun-20 11:00N 34°39' E 135°26'0 0.0
2018-Jun-20 10:25N 34°39' E 135°26'0 0.0
2018-Jun-20 09:59N 34°39' E 135°26'0 0.0
2018-Jun-20 09:20N 34°39' E 135°26'0 0.0
2018-Jun-20 08:57N 34°39' E 135°26'0 0.0
2018-Jun-20 08:30N 34°39' E 135°26'0 0.0
2018-Jun-20 08:00N 34°39' E 135°26'0 0.0
2018-Jun-20 07:30N 34°39' E 135°26'0 0.0
2018-Jun-20 06:50N 34°39' E 135°26'0 1.3
2018-Jun-20 06:30N 34°39' E 135°27'4 8.0
2018-Jun-20 06:00N 34°39' E 135°22'2 4.8
2018-Jun-20 05:30N 34°39' E 135°19'3 5.6
2018-Jun-20 05:00N 34°40' E 135°16'2 3.4
2018-Jun-20 04:30N 34°41' E 135°14'3 5.1
2018-Jun-20 04:00N 34°41' E 135°17'510.2
2018-Jun-20 03:30N 34°40' E 135°23'2 0.6
2018-Jun-19 23:52N 34°39' E 135°26'0 0.0
2018-Jun-19 23:16N 34°39' E 135°26'0 0.0
2018-Jun-19 23:00N 34°39' E 135°26'0 0.0
2018-Jun-19 22:29N 34°39' E 135°26'0 0.0
2018-Jun-19 22:00N 34°39' E 135°26'0 0.0
2018-Jun-19 21:30N 34°39' E 135°26'0 0.0
2018-Jun-19 20:49N 34°39' E 135°26'0 0.0
2018-Jun-19 20:28N 34°39' E 135°26'0 0.0
2018-Jun-19 19:58N 34°39' E 135°26'0 0.0
2018-Jun-19 19:30N 34°39' E 135°26'0 0.0
2018-Jun-19 18:59N 34°39' E 135°26'0 0.0
2018-Jun-19 18:29N 34°39' E 135°26'0 0.0
2018-Jun-19 17:59N 34°39' E 135°26'0 0.0
2018-Jun-19 17:16N 34°39' E 135°26'0 0.0
2018-Jun-19 16:56N 34°39' E 135°26'0 0.0
2018-Jun-19 16:29N 34°39' E 135°26'0 0.0
2018-Jun-19 16:00N 34°39' E 135°26'0 0.0
2018-Jun-19 15:25N 34°39' E 135°26'0 0.0
2018-Jun-19 14:57N 34°39' E 135°26'0 0.0
2018-Jun-19 13:34N 34°39' E 135°26'0 0.0
2018-Jun-19 13:18N 34°39' E 135°26'0 0.0
2018-Jun-19 12:58N 34°39' E 135°26'0 0.0
2018-Jun-19 11:05N 34°39' E 135°26'0 0.0
2018-Jun-19 10:59N 34°39' E 135°26'1 1.3
2018-Jun-19 10:30N 34°39' E 135°25'611.4
2018-Jun-19 10:01N 34°41' E 135°19'4 7.5
2018-Jun-19 09:30N 34°41' E 135°14'0 0.7
2018-Jun-19 09:00N 34°41' E 135°14'3 4.9
2018-Jun-19 08:29N 34°39' E 135°17'2 4.9
2018-Jun-19 08:00N 34°37' E 135°18'3 6.6
2018-Jun-19 07:29N 34°35' E 135°14'3 6.6
2018-Jun-19 07:00N 34°35' E 135°10'4 7.4
2018-Jun-19 06:30N 34°35' E 135°05'3 6.5
2018-Jun-19 05:58N 34°36' E 135°02'4 6.2
2018-Jun-19 05:15N 34°36' E 134°56'2 5.7
2018-Jun-19 04:59N 34°36' E 134°54'3 5.4
2018-Jun-19 04:31N 34°38' E 134°52'3 5.0
2018-Jun-19 04:00N 34°38' E 134°49'3 5.1
2018-Jun-19 03:31N 34°39' E 134°46'3 5.0
2018-Jun-19 03:00N 34°40' E 134°43'5 5.1
2018-Jun-19 01:56N 34°42' E 134°37'1 0.1
2018-Jun-18 06:40N 34°43' E 134°35'5 9.0
2018-Jun-18 06:10N 34°42' E 134°41'4 8.7
2018-Jun-18 05:43N 34°41' E 134°45'2 9.8
2018-Jun-18 05:30N 34°40' E 134°47'6 9.1
2018-Jun-18 04:53N 34°37' E 134°53'4 9.2
2018-Jun-18 04:30N 34°38' E 134°58'511.0
2018-Jun-18 04:00N 34°36' E 135°04'510.0
2018-Jun-18 03:30N 34°36' E 135°10'510.2
2018-Jun-18 03:00N 34°37' E 135°16'5 9.9
2018-Jun-18 02:30N 34°38' E 135°22'3 6.7
2018-Jun-18 02:00N 34°39' E 135°26'0 0.0
2018-Jun-18 01:29N 34°39' E 135°26'0 0.0
2018-Jun-18 01:00N 34°39' E 135°26'0 0.0
2018-Jun-18 00:30N 34°39' E 135°26'0 0.0
2018-Jun-17 23:57N 34°39' E 135°26'0 0.0
2018-Jun-17 23:30N 34°39' E 135°26'0 0.0
2018-Jun-17 22:59N 34°39' E 135°26'0 0.0
2018-Jun-17 22:30N 34°39' E 135°26'0 0.0
2018-Jun-17 22:00N 34°39' E 135°26'0 0.0
2018-Jun-17 21:30N 34°39' E 135°26'0 0.0
2018-Jun-17 20:59N 34°39' E 135°26'0 0.0
2018-Jun-17 20:29N 34°39' E 135°26'0 0.0
2018-Jun-17 20:00N 34°39' E 135°26'0 0.0
2018-Jun-17 19:30N 34°39' E 135°26'0 0.0
2018-Jun-17 18:59N 34°39' E 135°26'0 0.0
2018-Jun-17 18:30N 34°39' E 135°26'0 0.0
2018-Jun-17 17:58N 34°39' E 135°26'0 0.0
2018-Jun-17 17:30N 34°39' E 135°26'0 0.0
2018-Jun-17 16:57N 34°39' E 135°26'0 0.0
2018-Jun-17 16:30N 34°39' E 135°26'0 0.0
2018-Jun-17 15:59N 34°39' E 135°26'0 0.0
2018-Jun-17 15:30N 34°39' E 135°26'0 0.0
2018-Jun-17 15:00N 34°39' E 135°26'0 0.0
2018-Jun-17 14:28N 34°39' E 135°26'0 0.0
2018-Jun-17 14:00N 34°39' E 135°26'0 0.0
2018-Jun-17 13:28N 34°39' E 135°26'0 0.0
2018-Jun-17 13:00N 34°39' E 135°26'0 0.0
2018-Jun-17 12:30N 34°39' E 135°26'0 0.0
2018-Jun-17 11:59N 34°39' E 135°26'0 0.0
2018-Jun-17 11:30N 34°39' E 135°26'0 0.0
2018-Jun-17 11:00N 34°39' E 135°26'0 0.0
2018-Jun-17 10:30N 34°39' E 135°26'0 0.0
2018-Jun-17 10:00N 34°39' E 135°26'0 0.0
2018-Jun-17 09:30N 34°39' E 135°26'0 0.0
2018-Jun-17 09:00N 34°39' E 135°26'0 0.0
2018-Jun-17 08:30N 34°39' E 135°26'0 0.0
2018-Jun-17 07:59N 34°39' E 135°26'0 0.0
2018-Jun-17 07:30N 34°39' E 135°26'0 0.0
2018-Jun-17 06:58N 34°39' E 135°26'0 0.0
2018-Jun-17 06:30N 34°39' E 135°26'0 0.0
2018-Jun-17 06:00N 34°39' E 135°26'0 0.0
2018-Jun-17 05:31N 34°39' E 135°26'0 0.0
2018-Jun-17 05:00N 34°39' E 135°26'0 0.0
2018-Jun-17 04:30N 34°39' E 135°26'0 0.0
2018-Jun-17 04:00N 34°39' E 135°26'0 0.0
2018-Jun-17 03:30N 34°39' E 135°26'0 0.0
2018-Jun-17 03:00N 34°39' E 135°26'0 0.0
2018-Jun-17 02:30N 34°39' E 135°26'0 0.0
2018-Jun-17 02:00N 34°39' E 135°26'0 0.0
2018-Jun-17 01:30N 34°39' E 135°26'0 0.0
2018-Jun-17 01:00N 34°39' E 135°26'0 0.0
2018-Jun-17 00:30N 34°39' E 135°26'0 0.0
2018-Jun-17 00:00N 34°39' E 135°26'0 0.0
2018-Jun-16 23:30N 34°39' E 135°26'0 0.0
2018-Jun-16 23:00N 34°39' E 135°26'0 0.0
2018-Jun-16 22:30N 34°39' E 135°26'0 0.0
2018-Jun-16 22:00N 34°39' E 135°26'0 0.0
2018-Jun-16 21:30N 34°39' E 135°26'0 0.0
2018-Jun-16 21:00N 34°39' E 135°26'0 0.0
2018-Jun-16 20:28N 34°39' E 135°26'0 0.0
2018-Jun-16 20:00N 34°39' E 135°26'0 0.0
2018-Jun-16 19:26N 34°39' E 135°26'0 0.0
2018-Jun-16 19:00N 34°39' E 135°26'0 0.0
2018-Jun-16 18:29N 34°39' E 135°26'0 0.0
2018-Jun-16 18:00N 34°39' E 135°26'0 0.0
2018-Jun-16 17:30N 34°39' E 135°26'0 0.0
2018-Jun-16 16:57N 34°39' E 135°26'0 0.0
2018-Jun-16 16:30N 34°39' E 135°26'0 0.0
2018-Jun-16 15:59N 34°39' E 135°26'0 0.0
2018-Jun-16 15:30N 34°39' E 135°26'0 0.0
2018-Jun-16 15:00N 34°39' E 135°26'0 0.0
2018-Jun-16 14:30N 34°39' E 135°26'0 0.0
2018-Jun-16 13:59N 34°39' E 135°26'0 0.0
2018-Jun-16 13:27N 34°39' E 135°26'0 0.0
2018-Jun-16 13:00N 34°39' E 135°26'0 0.0
2018-Jun-16 12:30N 34°39' E 135°26'0 0.0
2018-Jun-16 12:00N 34°39' E 135°26'0 0.0
2018-Jun-16 11:30N 34°39' E 135°26'0 0.0
2018-Jun-16 11:00N 34°39' E 135°26'0 0.0
2018-Jun-16 10:30N 34°39' E 135°26'0 0.0
2018-Jun-16 09:55N 34°39' E 135°26'0 0.0
2018-Jun-16 09:17N 34°39' E 135°26'0 0.0
2018-Jun-16 09:00N 34°39' E 135°26'0 0.0
2018-Jun-16 08:28N 34°39' E 135°26'0 0.0
2018-Jun-16 07:59N 34°39' E 135°26'0 0.0
2018-Jun-16 07:30N 34°39' E 135°26'0 0.0
2018-Jun-16 06:59N 34°39' E 135°26'0 0.0
2018-Jun-16 06:30N 34°39' E 135°26'0 0.0
2018-Jun-16 06:00N 34°39' E 135°26'0 0.0
2018-Jun-16 05:30N 34°39' E 135°26'0 0.0
2018-Jun-16 05:00N 34°39' E 135°26'0 0.0
2018-Jun-16 04:27N 34°39' E 135°26'0 0.0
2018-Jun-16 04:00N 34°39' E 135°26'0 0.0
2018-Jun-16 03:30N 34°39' E 135°26'0 0.0
2018-Jun-16 02:59N 34°39' E 135°26'0 0.0
2018-Jun-16 02:29N 34°39' E 135°26'0 0.0
2018-Jun-16 02:00N 34°39' E 135°26'0 0.0
2018-Jun-16 01:30N 34°39' E 135°26'0 0.0
2018-Jun-16 01:00N 34°39' E 135°26'0 0.0
2018-Jun-16 00:28N 34°39' E 135°26'0 0.0
2018-Jun-16 00:00N 34°39' E 135°26'0 0.0
2018-Jun-15 23:29N 34°39' E 135°26'0 0.0
2018-Jun-15 23:00N 34°39' E 135°26'0 0.0
2018-Jun-15 22:30N 34°39' E 135°26'0 0.0
2018-Jun-15 22:00N 34°39' E 135°26'0 0.0
2018-Jun-15 21:30N 34°39' E 135°26'0 0.0
2018-Jun-15 21:00N 34°39' E 135°26'0 0.0
2018-Jun-15 20:29N 34°39' E 135°26'0 0.0
2018-Jun-15 20:00N 34°39' E 135°26'0 0.0
2018-Jun-15 19:30N 34°39' E 135°26'0 0.0
2018-Jun-15 18:57N 34°39' E 135°26'0 0.0
2018-Jun-15 18:30N 34°39' E 135°26'0 0.0
2018-Jun-15 18:00N 34°39' E 135°26'0 0.0
2018-Jun-15 17:29N 34°39' E 135°26'0 0.0
2018-Jun-15 17:00N 34°39' E 135°26'0 0.0
2018-Jun-15 16:30N 34°39' E 135°26'0 0.0
2018-Jun-15 16:00N 34°39' E 135°26'0 0.0
2018-Jun-15 15:30N 34°39' E 135°26'0 0.0
2018-Jun-15 15:00N 34°39' E 135°26'0 0.0
2018-Jun-15 14:29N 34°39' E 135°26'0 0.0
2018-Jun-15 13:59N 34°39' E 135°26'0 0.0
2018-Jun-15 13:30N 34°39' E 135°26'0 0.0
2018-Jun-15 13:00N 34°39' E 135°26'0 0.0
2018-Jun-15 12:30N 34°39' E 135°26'0 0.0
2018-Jun-15 12:00N 34°39' E 135°26'0 0.0
2018-Jun-15 11:29N 34°39' E 135°26'0 0.0
2018-Jun-15 10:54N 34°39' E 135°26'0 0.0
2018-Jun-15 10:29N 34°39' E 135°26'0 0.0
2018-Jun-15 09:59N 34°39' E 135°26'0 0.0
2018-Jun-15 09:30N 34°39' E 135°26'0 0.0
2018-Jun-15 08:59N 34°39' E 135°26'0 0.0
2018-Jun-15 08:30N 34°39' E 135°26'0 0.0
2018-Jun-15 08:00N 34°39' E 135°26'0 0.0
2018-Jun-15 07:29N 34°39' E 135°26'0 0.0
2018-Jun-15 07:00N 34°39' E 135°26'0 0.0
2018-Jun-15 06:30N 34°39' E 135°26'0 0.0
2018-Jun-15 06:00N 34°39' E 135°26'3 5.5
2018-Jun-15 05:30N 34°38' E 135°23'5 9.2
2018-Jun-15 05:00N 34°36' E 135°18'5 9.8
2018-Jun-15 04:30N 34°35' E 135°12'510.9
2018-Jun-15 04:00N 34°35' E 135°06'811.5
2018-Jun-15 03:18N 34°36' E 134°56'311.5
2018-Jun-15 03:01N 34°37' E 134°52'510.8
2018-Jun-15 02:30N 34°39' E 134°46'610.1
2018-Jun-15 01:56N 34°41' E 134°39'610.3
2018-Jun-15 01:22N 34°43' E 134°33'2 0.3
2018-Jun-14 19:30N 34°43' E 134°35'8 5.4
2018-Jun-14 17:56N 34°42' E 134°45'2 4.9
2018-Jun-14 17:30N 34°40' E 134°47'2 4.6
2018-Jun-14 17:01N 34°39' E 134°49'3 3.9
2018-Jun-14 16:20N 34°38' E 134°52'1 3.2
2018-Jun-14 16:00N 34°38' E 134°54'2 3.9
2018-Jun-14 15:31N 34°37' E 134°56'3 6.4
2018-Jun-14 15:00N 34°38' E 134°60'3 6.3
2018-Jun-14 14:30N 34°36' E 135°03'3 5.3
2018-Jun-14 14:00N 34°36' E 135°06'2 4.7
2018-Jun-14 13:30N 34°36' E 135°09'2 4.9
2018-Jun-14 13:01N 34°36' E 135°12'2 4.7
2018-Jun-14 12:30N 34°37' E 135°15'2 4.7
2018-Jun-14 12:00N 34°37' E 135°18'3 5.1
2018-Jun-14 11:30N 34°40' E 135°19'3 5.1
2018-Jun-14 11:00N 34°40' E 135°16'1 2.3
2018-Jun-14 10:30N 34°41' E 135°14'5 9.1
2018-Jun-14 10:00N 34°40' E 135°20'510.7
2018-Jun-14 09:30N 34°39' E 135°26'0 0.2
2018-Jun-14 08:58N 34°39' E 135°26'0 0.0
2018-Jun-14 08:29N 34°39' E 135°26'0 0.0
2018-Jun-14 08:00N 34°39' E 135°26'0 0.0
2018-Jun-14 07:29N 34°39' E 135°26'0 0.0
2018-Jun-14 07:00N 34°39' E 135°26'0 0.0
2018-Jun-14 06:27N 34°39' E 135°26'0 0.0
2018-Jun-14 06:00N 34°39' E 135°26'0 0.0
2018-Jun-14 05:29N 34°39' E 135°26'0 0.0
2018-Jun-14 05:00N 34°39' E 135°26'0 0.0
2018-Jun-14 04:30N 34°39' E 135°26'0 0.0
2018-Jun-14 03:59N 34°39' E 135°26'0 0.0
2018-Jun-14 03:30N 34°39' E 135°26'0 0.0
2018-Jun-14 03:00N 34°39' E 135°26'0 0.8
2018-Jun-14 02:30N 34°39' E 135°27'0 0.0
2018-Jun-14 02:00N 34°39' E 135°27'  
Track history (hours):
 
Tides and Currents Weather Stations Pressure Air Temp Water Temp Dewpoint Dewpoint Depression Visibility Wind Speed Wind Dir Waves Ship Positions

Shoyo Maru

Last reported at 2018-Jun-21 18:20 UTC. Time now 2018-Jul-19 09:50 UTC.
Position N 33°48' E 135°04'.
Warning: this ship's position is 27 days out of date.

Length 33 m; draft 4.3 m.

Type: Tug. MMSI: 432543000.

Date/timePositionNaut miles runAvg speedWind from/ knotsBaromVisibWave heightAir tempDewpointWater temp
2018-Jun-21 18:20N 33°48' E 135°04'2 6.1
2018-Jun-21 18:00N 33°49' E 135°02'3 6.2
2018-Jun-21 17:30N 33°52' E 134°60'3 6.1
2018-Jun-21 17:00N 33°55' E 134°59'3 6.3
2018-Jun-21 16:30N 33°58' E 134°59'3 6.2
2018-Jun-21 16:01N 34°01' E 134°59'3 6.0
2018-Jun-21 15:30N 34°04' E 134°59'3 5.9
2018-Jun-21 15:01N 34°07' E 134°59'3 5.8
2018-Jun-21 14:30N 34°10' E 134°60'2 4.4
2018-Jun-21 14:01N 34°12' E 134°59'3 6.4
2018-Jun-21 13:31N 34°15' E 134°58'3 6.7
2018-Jun-21 13:01N 34°18' E 134°59'3 6.0
2018-Jun-21 12:31N 34°21' E 134°60'3 5.9
2018-Jun-21 12:00N 34°23' E 135°02'3 6.4
2018-Jun-21 11:31N 34°26' E 135°05'3 6.5
2018-Jun-21 11:01N 34°28' E 135°08'3 6.7
2018-Jun-21 10:30N 34°30' E 135°11'3 6.4
2018-Jun-21 10:00N 34°32' E 135°14'3 6.0
2018-Jun-21 09:31N 34°34' E 135°16'3 6.1
2018-Jun-21 09:00N 34°37' E 135°19'2 3.9
2018-Jun-21 08:30N 34°38' E 135°20'0 0.3
2018-Jun-21 08:00N 34°38' E 135°20'0 0.0
2018-Jun-21 07:31N 34°38' E 135°20'0 0.0
2018-Jun-21 07:00N 34°38' E 135°20'0 0.0
2018-Jun-21 06:30N 34°38' E 135°20'0 0.1
2018-Jun-21 05:58N 34°38' E 135°20'0 0.1
2018-Jun-21 05:31N 34°38' E 135°20'0 0.0
2018-Jun-21 05:00N 34°38' E 135°20'0 0.0
2018-Jun-21 04:30N 34°38' E 135°20'0 0.0
2018-Jun-21 04:00N 34°38' E 135°20'0 0.0
2018-Jun-21 03:29N 34°38' E 135°20'0 0.0
2018-Jun-21 03:00N 34°38' E 135°20'0 0.0
2018-Jun-21 02:30N 34°38' E 135°20'0 0.1
2018-Jun-21 02:00N 34°38' E 135°20'0 0.0
2018-Jun-21 01:30N 34°38' E 135°20'1 1.9
2018-Jun-21 01:00N 34°39' E 135°21'4 8.7
2018-Jun-21 00:30N 34°39' E 135°26'0 0.0
2018-Jun-21 00:00N 34°39' E 135°26'0 0.0
2018-Jun-20 23:29N 34°39' E 135°26'0 0.0
2018-Jun-20 22:47N 34°39' E 135°26'0 0.0
2018-Jun-20 22:20N 34°39' E 135°26'0 0.0
2018-Jun-20 22:00N 34°39' E 135°26'0 0.0
2018-Jun-20 21:30N 34°39' E 135°26'0 0.0
2018-Jun-20 21:00N 34°39' E 135°26'0 0.0
2018-Jun-20 20:30N 34°39' E 135°26'0 0.0
2018-Jun-20 20:00N 34°39' E 135°26'0 0.0
2018-Jun-20 19:30N 34°39' E 135°26'0 0.0
2018-Jun-20 19:00N 34°39' E 135°26'0 0.0
2018-Jun-20 18:30N 34°39' E 135°26'0 0.0
2018-Jun-20 18:00N 34°39' E 135°26'0 0.0
2018-Jun-20 17:30N 34°39' E 135°26'0 0.0
2018-Jun-20 17:00N 34°39' E 135°26'0 0.0
2018-Jun-20 16:30N 34°39' E 135°26'0 0.0
2018-Jun-20 16:00N 34°39' E 135°26'0 0.0
2018-Jun-20 15:30N 34°39' E 135°26'0 0.0
2018-Jun-20 15:00N 34°39' E 135°26'0 0.0
2018-Jun-20 14:30N 34°39' E 135°26'0 0.0
2018-Jun-20 13:59N 34°39' E 135°26'0 0.0
2018-Jun-20 13:23N 34°39' E 135°26'0 0.0
2018-Jun-20 12:59N 34°39' E 135°26'0 0.0
2018-Jun-20 12:30N 34°39' E 135°26'0 0.0
2018-Jun-20 11:55N 34°39' E 135°26'0 0.0
2018-Jun-20 11:17N 34°39' E 135°26'0 0.0
2018-Jun-20 11:00N 34°39' E 135°26'0 0.0
2018-Jun-20 10:25N 34°39' E 135°26'0 0.0
2018-Jun-20 09:59N 34°39' E 135°26'0 0.0
2018-Jun-20 09:20N 34°39' E 135°26'0 0.0
2018-Jun-20 08:57N 34°39' E 135°26'0 0.0
2018-Jun-20 08:30N 34°39' E 135°26'0 0.0
2018-Jun-20 08:00N 34°39' E 135°26'0 0.0
2018-Jun-20 07:30N 34°39' E 135°26'0 0.0
2018-Jun-20 06:50N 34°39' E 135°26'0 1.3
2018-Jun-20 06:30N 34°39' E 135°27'4 8.0
2018-Jun-20 06:00N 34°39' E 135°22'2 4.8
2018-Jun-20 05:30N 34°39' E 135°19'3 5.6
2018-Jun-20 05:00N 34°40' E 135°16'2 3.4
2018-Jun-20 04:30N 34°41' E 135°14'3 5.1
2018-Jun-20 04:00N 34°41' E 135°17'510.2
2018-Jun-20 03:30N 34°40' E 135°23'2 0.6
2018-Jun-19 23:52N 34°39' E 135°26'0 0.0
2018-Jun-19 23:16N 34°39' E 135°26'0 0.0
2018-Jun-19 23:00N 34°39' E 135°26'0 0.0
2018-Jun-19 22:29N 34°39' E 135°26'0 0.0
2018-Jun-19 22:00N 34°39' E 135°26'0 0.0
2018-Jun-19 21:30N 34°39' E 135°26'0 0.0
2018-Jun-19 20:49N 34°39' E 135°26'0 0.0
2018-Jun-19 20:28N 34°39' E 135°26'0 0.0
2018-Jun-19 19:58N 34°39' E 135°26'0 0.0
2018-Jun-19 19:30N 34°39' E 135°26'0 0.0
2018-Jun-19 18:59N 34°39' E 135°26'0 0.0
2018-Jun-19 18:29N 34°39' E 135°26'0 0.0
2018-Jun-19 17:59N 34°39' E 135°26'0 0.0
2018-Jun-19 17:16N 34°39' E 135°26'0 0.0
2018-Jun-19 16:56N 34°39' E 135°26'0 0.0
2018-Jun-19 16:29N 34°39' E 135°26'0 0.0
2018-Jun-19 16:00N 34°39' E 135°26'0 0.0
2018-Jun-19 15:25N 34°39' E 135°26'0 0.0
2018-Jun-19 14:57N 34°39' E 135°26'0 0.0
2018-Jun-19 13:34N 34°39' E 135°26'0 0.0
2018-Jun-19 13:18N 34°39' E 135°26'0 0.0
2018-Jun-19 12:58N 34°39' E 135°26'0 0.0
2018-Jun-19 11:05N 34°39' E 135°26'0 0.0
2018-Jun-19 10:59N 34°39' E 135°26'1 1.3
2018-Jun-19 10:30N 34°39' E 135°25'611.4
2018-Jun-19 10:01N 34°41' E 135°19'4 7.5
2018-Jun-19 09:30N 34°41' E 135°14'0 0.7
2018-Jun-19 09:00N 34°41' E 135°14'3 4.9
2018-Jun-19 08:29N 34°39' E 135°17'2 4.9
2018-Jun-19 08:00N 34°37' E 135°18'3 6.6
2018-Jun-19 07:29N 34°35' E 135°14'3 6.6
2018-Jun-19 07:00N 34°35' E 135°10'4 7.4
2018-Jun-19 06:30N 34°35' E 135°05'3 6.5
2018-Jun-19 05:58N 34°36' E 135°02'4 6.2
2018-Jun-19 05:15N 34°36' E 134°56'2 5.7
2018-Jun-19 04:59N 34°36' E 134°54'3 5.4
2018-Jun-19 04:31N 34°38' E 134°52'3 5.0
2018-Jun-19 04:00N 34°38' E 134°49'3 5.1
2018-Jun-19 03:31N 34°39' E 134°46'3 5.0
2018-Jun-19 03:00N 34°40' E 134°43'5 5.1
2018-Jun-19 01:56N 34°42' E 134°37'1 0.1
2018-Jun-18 06:40N 34°43' E 134°35'5 9.0
2018-Jun-18 06:10N 34°42' E 134°41'4 8.7
2018-Jun-18 05:43N 34°41' E 134°45'2 9.8
2018-Jun-18 05:30N 34°40' E 134°47'6 9.1
2018-Jun-18 04:53N 34°37' E 134°53'4 9.2
2018-Jun-18 04:30N 34°38' E 134°58'511.0
2018-Jun-18 04:00N 34°36' E 135°04'510.0
2018-Jun-18 03:30N 34°36' E 135°10'510.2
2018-Jun-18 03:00N 34°37' E 135°16'5 9.9
2018-Jun-18 02:30N 34°38' E 135°22'3 6.7
2018-Jun-18 02:00N 34°39' E 135°26'0 0.0
2018-Jun-18 01:29N 34°39' E 135°26'0 0.0
2018-Jun-18 01:00N 34°39' E 135°26'0 0.0
2018-Jun-18 00:30N 34°39' E 135°26'0 0.0
2018-Jun-17 23:57N 34°39' E 135°26'0 0.0
2018-Jun-17 23:30N 34°39' E 135°26'0 0.0
2018-Jun-17 22:59N 34°39' E 135°26'0 0.0
2018-Jun-17 22:30N 34°39' E 135°26'0 0.0
2018-Jun-17 22:00N 34°39' E 135°26'0 0.0
2018-Jun-17 21:30N 34°39' E 135°26'0 0.0
2018-Jun-17 20:59N 34°39' E 135°26'0 0.0
2018-Jun-17 20:29N 34°39' E 135°26'0 0.0
2018-Jun-17 20:00N 34°39' E 135°26'0 0.0
2018-Jun-17 19:30N 34°39' E 135°26'0 0.0
2018-Jun-17 18:59N 34°39' E 135°26'0 0.0
2018-Jun-17 18:30N 34°39' E 135°26'0 0.0
2018-Jun-17 17:58N 34°39' E 135°26'0 0.0
2018-Jun-17 17:30N 34°39' E 135°26'0 0.0
2018-Jun-17 16:57N 34°39' E 135°26'0 0.0
2018-Jun-17 16:30N 34°39' E 135°26'0 0.0
2018-Jun-17 15:59N 34°39' E 135°26'0 0.0
2018-Jun-17 15:30N 34°39' E 135°26'0 0.0
2018-Jun-17 15:00N 34°39' E 135°26'0 0.0
2018-Jun-17 14:28N 34°39' E 135°26'0 0.0
2018-Jun-17 14:00N 34°39' E 135°26'0 0.0
2018-Jun-17 13:28N 34°39' E 135°26'0 0.0
2018-Jun-17 13:00N 34°39' E 135°26'0 0.0
2018-Jun-17 12:30N 34°39' E 135°26'0 0.0
2018-Jun-17 11:59N 34°39' E 135°26'0 0.0
2018-Jun-17 11:30N 34°39' E 135°26'0 0.0
2018-Jun-17 11:00N 34°39' E 135°26'0 0.0
2018-Jun-17 10:30N 34°39' E 135°26'0 0.0
2018-Jun-17 10:00N 34°39' E 135°26'0 0.0
2018-Jun-17 09:30N 34°39' E 135°26'0 0.0
2018-Jun-17 09:00N 34°39' E 135°26'0 0.0
2018-Jun-17 08:30N 34°39' E 135°26'0 0.0
2018-Jun-17 07:59N 34°39' E 135°26'0 0.0
2018-Jun-17 07:30N 34°39' E 135°26'0 0.0
2018-Jun-17 06:58N 34°39' E 135°26'0 0.0
2018-Jun-17 06:30N 34°39' E 135°26'0 0.0
2018-Jun-17 06:00N 34°39' E 135°26'0 0.0
2018-Jun-17 05:31N 34°39' E 135°26'0 0.0
2018-Jun-17 05:00N 34°39' E 135°26'0 0.0
2018-Jun-17 04:30N 34°39' E 135°26'0 0.0
2018-Jun-17 04:00N 34°39' E 135°26'0 0.0
2018-Jun-17 03:30N 34°39' E 135°26'0 0.0
2018-Jun-17 03:00N 34°39' E 135°26'0 0.0
2018-Jun-17 02:30N 34°39' E 135°26'0 0.0
2018-Jun-17 02:00N 34°39' E 135°26'0 0.0
2018-Jun-17 01:30N 34°39' E 135°26'0 0.0
2018-Jun-17 01:00N 34°39' E 135°26'0 0.0
2018-Jun-17 00:30N 34°39' E 135°26'0 0.0
2018-Jun-17 00:00N 34°39' E 135°26'0 0.0
2018-Jun-16 23:30N 34°39' E 135°26'0 0.0
2018-Jun-16 23:00N 34°39' E 135°26'0 0.0
2018-Jun-16 22:30N 34°39' E 135°26'0 0.0
2018-Jun-16 22:00N 34°39' E 135°26'0 0.0
2018-Jun-16 21:30N 34°39' E 135°26'0 0.0
2018-Jun-16 21:00N 34°39' E 135°26'0 0.0
2018-Jun-16 20:28N 34°39' E 135°26'0 0.0
2018-Jun-16 20:00N 34°39' E 135°26'0 0.0
2018-Jun-16 19:26N 34°39' E 135°26'0 0.0
2018-Jun-16 19:00N 34°39' E 135°26'0 0.0
2018-Jun-16 18:29N 34°39' E 135°26'0 0.0
2018-Jun-16 18:00N 34°39' E 135°26'0 0.0
2018-Jun-16 17:30N 34°39' E 135°26'0 0.0
2018-Jun-16 16:57N 34°39' E 135°26'0 0.0
2018-Jun-16 16:30N 34°39' E 135°26'0 0.0
2018-Jun-16 15:59N 34°39' E 135°26'0 0.0
2018-Jun-16 15:30N 34°39' E 135°26'0 0.0
2018-Jun-16 15:00N 34°39' E 135°26'0 0.0
2018-Jun-16 14:30N 34°39' E 135°26'0 0.0
2018-Jun-16 13:59N 34°39' E 135°26'0 0.0
2018-Jun-16 13:27N 34°39' E 135°26'0 0.0
2018-Jun-16 13:00N 34°39' E 135°26'0 0.0
2018-Jun-16 12:30N 34°39' E 135°26'0 0.0
2018-Jun-16 12:00N 34°39' E 135°26'0 0.0
2018-Jun-16 11:30N 34°39' E 135°26'0 0.0
2018-Jun-16 11:00N 34°39' E 135°26'0 0.0
2018-Jun-16 10:30N 34°39' E 135°26'0 0.0
2018-Jun-16 09:55N 34°39' E 135°26'0 0.0
2018-Jun-16 09:17N 34°39' E 135°26'0 0.0
2018-Jun-16 09:00N 34°39' E 135°26'0 0.0
2018-Jun-16 08:28N 34°39' E 135°26'0 0.0
2018-Jun-16 07:59N 34°39' E 135°26'0 0.0
2018-Jun-16 07:30N 34°39' E 135°26'0 0.0
2018-Jun-16 06:59N 34°39' E 135°26'0 0.0
2018-Jun-16 06:30N 34°39' E 135°26'0 0.0
2018-Jun-16 06:00N 34°39' E 135°26'0 0.0
2018-Jun-16 05:30N 34°39' E 135°26'0 0.0
2018-Jun-16 05:00N 34°39' E 135°26'0 0.0
2018-Jun-16 04:27N 34°39' E 135°26'0 0.0
2018-Jun-16 04:00N 34°39' E 135°26'0 0.0
2018-Jun-16 03:30N 34°39' E 135°26'0 0.0
2018-Jun-16 02:59N 34°39' E 135°26'0 0.0
2018-Jun-16 02:29N 34°39' E 135°26'0 0.0
2018-Jun-16 02:00N 34°39' E 135°26'0 0.0
2018-Jun-16 01:30N 34°39' E 135°26'0 0.0
2018-Jun-16 01:00N 34°39' E 135°26'0 0.0
2018-Jun-16 00:28N 34°39' E 135°26'0 0.0
2018-Jun-16 00:00N 34°39' E 135°26'0 0.0
2018-Jun-15 23:29N 34°39' E 135°26'0 0.0
2018-Jun-15 23:00N 34°39' E 135°26'0 0.0
2018-Jun-15 22:30N 34°39' E 135°26'0 0.0
2018-Jun-15 22:00N 34°39' E 135°26'0 0.0
2018-Jun-15 21:30N 34°39' E 135°26'0 0.0
2018-Jun-15 21:00N 34°39' E 135°26'0 0.0
2018-Jun-15 20:29N 34°39' E 135°26'0 0.0
2018-Jun-15 20:00N 34°39' E 135°26'0 0.0
2018-Jun-15 19:30N 34°39' E 135°26'0 0.0
2018-Jun-15 18:57N 34°39' E 135°26'0 0.0
2018-Jun-15 18:30N 34°39' E 135°26'0 0.0
2018-Jun-15 18:00N 34°39' E 135°26'0 0.0
2018-Jun-15 17:29N 34°39' E 135°26'0 0.0
2018-Jun-15 17:00N 34°39' E 135°26'0 0.0
2018-Jun-15 16:30N 34°39' E 135°26'0 0.0
2018-Jun-15 16:00N 34°39' E 135°26'0 0.0
2018-Jun-15 15:30N 34°39' E 135°26'0 0.0
2018-Jun-15 15:00N 34°39' E 135°26'0 0.0
2018-Jun-15 14:29N 34°39' E 135°26'0 0.0
2018-Jun-15 13:59N 34°39' E 135°26'0 0.0
2018-Jun-15 13:30N 34°39' E 135°26'0 0.0
2018-Jun-15 13:00N 34°39' E 135°26'0 0.0
2018-Jun-15 12:30N 34°39' E 135°26'0 0.0
2018-Jun-15 12:00N 34°39' E 135°26'0 0.0
2018-Jun-15 11:29N 34°39' E 135°26'0 0.0
2018-Jun-15 10:54N 34°39' E 135°26'0 0.0
2018-Jun-15 10:29N 34°39' E 135°26'0 0.0
2018-Jun-15 09:59N 34°39' E 135°26'0 0.0
2018-Jun-15 09:30N 34°39' E 135°26'0 0.0
2018-Jun-15 08:59N 34°39' E 135°26'0 0.0
2018-Jun-15 08:30N 34°39' E 135°26'0 0.0
2018-Jun-15 08:00N 34°39' E 135°26'0 0.0
2018-Jun-15 07:29N 34°39' E 135°26'0 0.0
2018-Jun-15 07:00N 34°39' E 135°26'0 0.0
2018-Jun-15 06:30N 34°39' E 135°26'0 0.0
2018-Jun-15 06:00N 34°39' E 135°26'3 5.5
2018-Jun-15 05:30N 34°38' E 135°23'5 9.2
2018-Jun-15 05:00N 34°36' E 135°18'5 9.8
2018-Jun-15 04:30N 34°35' E 135°12'510.9
2018-Jun-15 04:00N 34°35' E 135°06'811.5
2018-Jun-15 03:18N 34°36' E 134°56'311.5
2018-Jun-15 03:01N 34°37' E 134°52'510.8
2018-Jun-15 02:30N 34°39' E 134°46'610.1
2018-Jun-15 01:56N 34°41' E 134°39'610.3
2018-Jun-15 01:22N 34°43' E 134°33'2 0.3
2018-Jun-14 19:30N 34°43' E 134°35'8 5.4
2018-Jun-14 17:56N 34°42' E 134°45'2 4.9
2018-Jun-14 17:30N 34°40' E 134°47'2 4.6
2018-Jun-14 17:01N 34°39' E 134°49'3 3.9
2018-Jun-14 16:20N 34°38' E 134°52'1 3.2
2018-Jun-14 16:00N 34°38' E 134°54'2 3.9
2018-Jun-14 15:31N 34°37' E 134°56'3 6.4
2018-Jun-14 15:00N 34°38' E 134°60'3 6.3
2018-Jun-14 14:30N 34°36' E 135°03'3 5.3
2018-Jun-14 14:00N 34°36' E 135°06'2 4.7
2018-Jun-14 13:30N 34°36' E 135°09'2 4.9
2018-Jun-14 13:01N 34°36' E 135°12'2 4.7
2018-Jun-14 12:30N 34°37' E 135°15'2 4.7
2018-Jun-14 12:00N 34°37' E 135°18'3 5.1
2018-Jun-14 11:30N 34°40' E 135°19'3 5.1
2018-Jun-14 11:00N 34°40' E 135°16'1 2.3
2018-Jun-14 10:30N 34°41' E 135°14'5 9.1
2018-Jun-14 10:00N 34°40' E 135°20'510.7
2018-Jun-14 09:30N 34°39' E 135°26'0 0.2
2018-Jun-14 08:58N 34°39' E 135°26'0 0.0
2018-Jun-14 08:29N 34°39' E 135°26'0 0.0
2018-Jun-14 08:00N 34°39' E 135°26'0 0.0
2018-Jun-14 07:29N 34°39' E 135°26'0 0.0
2018-Jun-14 07:00N 34°39' E 135°26'0 0.0
2018-Jun-14 06:27N 34°39' E 135°26'0 0.0
2018-Jun-14 06:00N 34°39' E 135°26'0 0.0
2018-Jun-14 05:29N 34°39' E 135°26'0 0.0
2018-Jun-14 05:00N 34°39' E 135°26'0 0.0
2018-Jun-14 04:30N 34°39' E 135°26'0 0.0
2018-Jun-14 03:59N 34°39' E 135°26'0 0.0
2018-Jun-14 03:30N 34°39' E 135°26'0 0.0
2018-Jun-14 03:00N 34°39' E 135°26'0 0.8
2018-Jun-14 02:30N 34°39' E 135°27'0 0.0
2018-Jun-14 02:00N 34°39' E 135°27'  

Dump ship's entire track history